Latest Weather Observations for Fawkner Beacon

IDV60901

Issued at 10:01 pm EDT Sunday 16 December 2018 (issued every 10 minutes, with the page automatically refreshed every 10 minutes)

About weather observations | Map of Melbourne area stations | Latest observations for Melbourne area | Other Formats
Station Details ID: 086376 Name: FAWKNER BEACON Lat: -37.95 Lon: 144.93 Height: 17.0 m
Data from the previous 72 hours. | See also: Recent months for locations in Victoria
Date/Time
EDT
Temp
°C
App
Temp
°C
Dew
Point
°C
Rel
Hum
%
Delta-T
°C
Wind Press
QNH
hPa
Press
MSL
hPa
Rain since
9am
mm
Dir  Spd
km/h
Gust
km/h
Spd
kts
Gust
kts
16/10:00pm - - - - - SE 7 9 4 5 - - -
16/09:30pm - - - - - S 11 15 6 8 - - -
16/09:00pm - - - - - S 13 15 7 8 - - -
16/08:30pm - - - - - S 13 17 7 9 - - -
16/08:00pm - - - - - S 15 22 8 12 - - -
16/07:30pm - - - - - SW 17 24 9 13 - - -
16/07:05pm - - - - - WSW 17 33 9 18 - - -
16/07:00pm - - - - - WNW 6 15 3 8 - - -
16/06:30pm - - - - - NNE 7 13 4 7 - - -
16/06:00pm - - - - - NNE 9 11 5 6 - - -
16/05:30pm - - - - - N 13 17 7 9 - - -
16/05:00pm - - - - - N 19 22 10 12 - - -
16/04:30pm - - - - - NNW 26 32 14 17 - - -
16/04:00pm - - - - - NW 17 22 9 12 - - -
16/03:30pm - - - - - W 28 35 15 19 - - -
16/03:00pm - - - - - NNW 24 39 13 21 - - -
16/02:39pm - - - - - NW 19 43 10 23 - - -
16/02:30pm - - - - - NW 13 20 7 11 - - -
16/02:00pm - - - - - WNW 17 20 9 11 - - -
16/01:30pm - - - - - NNW 30 41 16 22 - - -
16/01:20pm - - - - - NNW 26 41 14 22 - - -
16/01:00pm - - - - - N 11 22 6 12 - - -
16/12:30pm - - - - - N 28 32 15 17 - - -
16/12:00pm - - - - - N 19 26 10 14 - - -
16/11:30am - - - - - N 15 20 8 11 - - -
16/11:00am - - - - - N 20 28 11 15 - - -
16/10:30am - - - - - N 24 26 13 14 - - -
16/10:00am - - - - - N 28 32 15 17 - - -
16/09:30am - - - - - N 28 32 15 17 - - -
16/09:00am - - - - - N 24 26 13 14 - - -
16/08:30am - - - - - N 22 28 12 15 - - -
16/08:00am - - - - - N 24 28 13 15 - - -
16/07:30am - - - - - N 24 30 13 16 - - -
16/07:00am - - - - - N 19 22 10 12 - - -
16/06:30am - - - - - NNE 13 20 7 11 - - -
16/06:00am - - - - - N 13 17 7 9 - - -
16/05:30am - - - - - N 17 20 9 11 - - -
16/05:00am - - - - - N 15 17 8 9 - - -
16/04:30am - - - - - N 19 22 10 12 - - -
16/04:00am - - - - - N 17 22 9 12 - - -
16/03:30am - - - - - N 17 22 9 12 - - -
16/03:00am - - - - - NE 24 30 13 16 - - -
16/02:30am - - - - - NNE 37 48 20 26 - - -
16/02:00am - - - - - N 46 61 25 33 - - -
16/01:53am - - - - - N 39 57 21 31 - - -
16/01:44am - - - - - NNE 30 44 16 24 - - -
16/01:30am - - - - - NNE 17 24 9 13 - - -
16/01:00am - - - - - NNE 11 13 6 7 - - -
16/12:30am - - - - - N 26 32 14 17 - - -
16/12:00am - - - - - NNE 13 17 7 9 - - -
 
Date/Time
EDT
Temp
°C
App
Temp
°C
Dew
Point
°C
Rel
Hum
%
Delta-T
°C
Wind Press
QNH
hPa
Press
MSL
hPa
Rain since
9am
mm
Dir  Spd
km/h
Gust
km/h
Spd
kts
Gust
kts
15/11:30pm - - - - - NNE 13 17 7 9 - - -
15/11:00pm - - - - - NNE 13 17 7 9 - - -
15/10:30pm - - - - - N 15 22 8 12 - - -
15/10:00pm - - - - - NNE 13 17 7 9 - - -
15/09:30pm - - - - - NNE 17 20 9 11 - - -
15/09:00pm - - - - - NNE 15 17 8 9 - - -
15/08:30pm - - - - - N 19 22 10 12 - - -
15/08:00pm - - - - - N 20 26 11 14 - - -
15/07:30pm - - - - - N 22 24 12 13 - - -
15/07:00pm - - - - - N 28 33 15 18 - - -
15/06:30pm - - - - - N 39 44 21 24 - - -
15/06:00pm - - - - - N 22 28 12 15 - - -
15/05:30pm - - - - - ESE 7 11 4 6 - - -
15/05:00pm - - - - - SSE 11 13 6 7 - - -
15/04:30pm - - - - - N 6 9 3 5 - - -
15/04:00pm - - - - - N 13 17 7 9 - - -
15/03:30pm - - - - - N 15 20 8 11 - - -
15/03:00pm - - - - - NNW 30 33 16 18 - - -
15/02:30pm - - - - - N 52 67 28 36 - - -
15/02:10pm - - - - - N 26 67 14 36 - - -
15/02:08pm - - - - - N 17 59 9 32 - - -
15/02:00pm - - - - - N 11 13 6 7 - - -
15/01:30pm - - - - - CALM 0 0 0 0 - - -
15/01:00pm - - - - - CALM 0 0 0 0 - - -
15/12:30pm - - - - - SW 4 7 2 4 - - -
15/12:00pm - - - - - WNW 9 13 5 7 - - -
15/11:30am - - - - - N 9 13 5 7 - - -
15/11:00am - - - - - NNW 9 11 5 6 - - -
15/10:30am - - - - - NNW 7 11 4 6 - - -
15/10:00am - - - - - N 15 20 8 11 - - -
15/09:30am - - - - - NNW 20 22 11 12 - - -
15/09:00am - - - - - N 7 11 4 6 - - -
15/08:30am - - - - - N 7 9 4 5 - - -
15/08:00am - - - - - NE 9 11 5 6 - - -
15/07:30am - - - - - N 2 7 1 4 - - -
15/07:00am - - - - - NNW 2 7 1 4 - - -
15/06:30am - - - - - N 6 7 3 4 - - -
15/06:00am - - - - - E 9 11 5 6 - - -
15/05:30am - - - - - SE 6 9 3 5 - - -
15/05:00am - - - - - S 11 13 6 7 - - -
15/04:30am - - - - - WSW 6 7 3 4 - - -
15/04:00am - - - - - SE 7 17 4 9 - - -
15/03:30am - - - - - SSW 9 11 5 6 - - -
15/03:00am - - - - - SSW 9 13 5 7 - - -
15/02:30am - - - - - WSW 7 9 4 5 - - -
15/02:00am - - - - - NW 9 11 5 6 - - -
15/01:30am - - - - - W 6 9 3 5 - - -
15/01:00am - - - - - SW 6 7 3 4 - - -
15/12:30am - - - - - CALM 0 0 0 0 - - -
15/12:00am - - - - - N 4 7 2 4 - - -
 
Date/Time
EDT
Temp
°C
App
Temp
°C
Dew
Point
°C
Rel
Hum
%
Delta-T
°C
Wind Press
QNH
hPa
Press
MSL
hPa
Rain since
9am
mm
Dir  Spd
km/h
Gust
km/h
Spd
kts
Gust
kts
14/11:30pm - - - - - N 15 22 8 12 - - -
14/11:00pm - - - - - NNW 13 15 7 8 - - -
14/10:30pm - - - - - N 11 13 6 7 - - -
14/10:00pm - - - - - NE 7 11 4 6 - - -
14/09:30pm - - - - - N 11 13 6 7 - - -
14/09:00pm - - - - - NNE 7 9 4 5 - - -
14/08:30pm - - - - - NNE 7 11 4 6 - - -
14/08:00pm - - - - - N 11 15 6 8 - - -
14/07:30pm - - - - - N 13 17 7 9 - - -
14/07:00pm - - - - - NNW 11 22 6 12 - - -
14/06:30pm - - - - - N 6 9 3 5 - - -
14/06:00pm - - - - - NNE 17 35 9 19 - - -
14/05:30pm - - - - - SSE 32 39 17 21 - - -
14/05:00pm - - - - - SSW 24 28 13 15 - - -
14/04:30pm - - - - - SSW 26 30 14 16 - - -
14/04:00pm - - - - - S 32 35 17 19 - - -
14/03:30pm - - - - - S 26 30 14 16 - - -
14/03:00pm - - - - - S 22 24 12 13 - - -
14/02:30pm - - - - - SSW 19 24 10 13 - - -
14/02:00pm - - - - - SSW 7 13 4 7 - - -
14/01:30pm - - - - - WSW 4 7 2 4 - - -
14/01:00pm - - - - - CALM 0 0 0 0 - - -
14/12:30pm - - - - - W 13 17 7 9 - - -
14/12:00pm - - - - - SW 15 22 8 12 - - -
14/11:30am - - - - - SW 22 26 12 14 - - -
14/11:00am - - - - - NW 19 22 10 12 - - -
14/10:30am - - - - - NW 17 24 9 13 - - -
14/10:00am - - - - - NW 13 20 7 11 - - -
14/09:30am - - - - - NW 19 24 10 13 - - -
14/09:00am - - - - - WNW 19 22 10 12 - - -
14/08:30am - - - - - NNW 24 28 13 15 - - -
14/08:00am - - - - - N 19 28 10 15 - - -
14/07:30am - - - - - WNW 9 11 5 6 - - -
14/07:00am - - - - - W 11 15 6 8 - - -
14/06:30am - - - - - W 13 17 7 9 - - -
14/06:00am - - - - - WNW 11 15 6 8 - - -
14/05:30am - - - - - ESE 7 13 4 7 - - -
14/05:00am - - - - - ESE 9 11 5 6 - - -
14/04:30am - - - - - ENE 7 9 4 5 - - -
14/04:00am - - - - - N 2 6 1 3 - - -
14/03:30am - - - - - NE 7 11 4 6 - - -
14/03:00am - - - - - N 7 11 4 6 - - -
14/02:30am - - - - - N 11 15 6 8 - - -
14/02:00am - - - - - N 11 15 6 8 - - -
14/01:30am - - - - - E 9 11 5 6 - - -
14/01:00am - - - - - ENE 11 15 6 8 - - -
14/12:30am - - - - - E 17 20 9 11 - - -
14/12:00am - - - - - E 17 20 9 11 - - -
 
Date/Time
EDT
Temp
°C
App
Temp
°C
Dew
Point
°C
Rel
Hum
%
Delta-T
°C
Wind Press
QNH
hPa
Press
MSL
hPa
Rain since
9am
mm
Dir  Spd
km/h
Gust
km/h
Spd
kts
Gust
kts
13/11:30pm - - - - - SE 15 17 8 9 - - -
13/11:00pm - - - - - SSW 20 24 11 13 - - -
13/10:30pm - - - - - SW 22 26 12 14 - - -

Latest Capital City Observations: Canberra | Sydney | Melbourne | Brisbane | Adelaide | Perth | Hobart | Darwin

Other Formats:

Comma delimited format used in spreadsheet applications
http://www.bom.gov.au/fwo/IDV60901/IDV60901.95872.axf

JavaScript Object Notation format (JSON) in row-major order
http://www.bom.gov.au/fwo/IDV60901/IDV60901.95872.json